Time;durP1;ratioP1;P1;durP2;ratioP2;P2;SDS_P1;SDS_P2;PMS_P1;PMS_P2;Temp;Humidity;BMP_temperature;BMP_pressure;BME280_temperature;BME280_humidity;BME280_pressure;Samples;Min_cycle;Max_cycle;Signal;HPM_P1;HPM_P2
2023/08/22 00:01:54;;;;;;;20.60;7.10;;;;;;;25.74;50.88;99398.66;67949;1275;1016400;-61
2023/08/22 00:04:56;;;;;;;20.50;7.40;;;;;;;25.70;50.82;99397.14;67962;1275;1016418;-61
2023/08/22 00:07:59;;;;;;;23.70;8.30;;;;;;;25.66;50.82;99392.04;67924;1275;1016422;-59
2023/08/22 00:11:02;;;;;;;24.40;9.20;;;;;;;25.70;50.63;99394.09;67970;1275;1018096;-59
2023/08/22 00:14:04;;;;;;;35.50;13.30;;;;;;;25.84;50.41;99394.29;67948;1275;1016158;-61
2023/08/22 00:17:08;;;;;;;32.50;11.60;;;;;;;25.77;50.50;99391.45;67936;1275;1016440;-61
2023/08/22 00:20:12;;;;;;;27.20;9.20;;;;;;;25.74;50.52;99392.02;67920;1275;1016281;-61
2023/08/22 00:23:15;;;;;;;23.20;8.10;;;;;;;25.61;50.36;99389.13;67959;1275;1016426;-61
2023/08/22 00:26:17;;;;;;;22.60;8.30;;;;;;;25.43;50.75;99393.08;67933;1275;1016438;-61
2023/08/22 00:29:20;;;;;;;21.10;7.00;;;;;;;25.23;51.08;99393.51;67979;1275;1016386;-59
2023/08/22 00:32:22;;;;;;;22.30;7.10;;;;;;;25.21;51.03;99384.42;67978;1275;1016445;-59
2023/08/22 00:35:28;;;;;;;27.50;8.70;;;;;;;25.38;50.59;99385.83;67929;1275;1016475;-61
2023/08/22 00:38:31;;;;;;;25.50;9.30;;;;;;;25.60;50.44;99377.36;67940;1275;1016400;-61
2023/08/22 00:41:33;;;;;;;30.90;10.20;;;;;;;25.64;50.31;99380.63;67914;1275;1016490;-61
2023/08/22 00:44:36;;;;;;;24.50;9.40;;;;;;;25.60;50.46;99380.02;67972;1275;1016418;-61
2023/08/22 00:47:38;;;;;;;31.00;10.10;;;;;;;25.29;51.15;99386.78;67993;1275;1016452;-61
2023/08/22 00:50:40;;;;;;;25.50;8.60;;;;;;;25.37;50.74;99390.67;67976;1275;1016392;-59
2023/08/22 00:53:43;;;;;;;22.20;5.80;;;;;;;25.28;50.86;99392.33;67810;1275;1016450;-59
2023/08/22 00:56:45;;;;;;;24.70;6.80;;;;;;;25.14;50.56;99391.99;67922;1275;1016304;-62
2023/08/22 00:59:48;;;;;;;20.80;6.90;;;;;;;25.12;50.42;99395.99;67956;1275;1016353;-58
2023/08/22 01:02:50;;;;;;;21.90;7.00;;;;;;;24.96;50.85;99399.41;67969;1275;1016637;-59
2023/08/22 01:05:53;;;;;;;19.30;5.80;;;;;;;25.00;50.71;99394.46;67989;1275;1016348;-58
2023/08/22 01:08:55;;;;;;;21.10;6.90;;;;;;;25.16;50.41;99389.64;67940;1275;1016973;-61
2023/08/22 01:11:58;;;;;;;23.90;8.00;;;;;;;25.20;50.68;99388.66;67967;1275;1016395;-61
2023/08/22 01:15:01;;;;;;;23.40;8.70;;;;;;;25.25;50.71;99378.08;67907;1275;1016388;-58
2023/08/22 01:18:04;;;;;;;24.90;8.60;;;;;;;25.29;50.52;99374.06;67947;1275;1016142;-58
2023/08/22 01:21:06;;;;;;;21.10;7.20;;;;;;;25.34;50.53;99374.46;67958;1275;1017096;-59
2023/08/22 01:24:09;;;;;;;23.10;7.10;;;;;;;25.15;50.80;99372.41;67904;1275;1016372;-61
2023/08/22 01:27:11;;;;;;;19.20;6.00;;;;;;;25.14;50.93;99376.97;67944;1275;1016475;-58
2023/08/22 01:30:14;;;;;;;20.00;6.50;;;;;;;25.08;51.17;99371.20;67983;1275;1016344;-59
2023/08/22 01:33:16;;;;;;;22.30;7.30;;;;;;;25.07;51.09;99374.55;68009;1275;1016063;-61
2023/08/22 01:36:19;;;;;;;21.20;7.10;;;;;;;24.93;51.14;99365.48;67898;1275;1016569;-61
2023/08/22 01:39:21;;;;;;;23.30;7.10;;;;;;;24.93;51.11;99363.31;67953;1275;1016316;-61
2023/08/22 01:42:24;;;;;;;;;;;;;;;24.95;51.05;99365.58;67952;1275;1016463;-61
2023/08/22 01:45:26;;;;;;;;;;;;;;;24.84;51.19;99365.69;67950;1275;1018935;-61
2023/08/22 01:48:29;;;;;;;22.40;7.60;;;;;;;24.92;50.83;99359.45;67969;1275;1016478;-61
2023/08/22 01:51:31;;;;;;;29.80;11.40;;;;;;;24.95;50.57;99361.75;67998;1275;1016254;-58
2023/08/22 01:54:34;;;;;;;22.00;8.40;;;;;;;24.89;51.17;99361.20;67929;1275;1016293;-60
2023/08/22 01:57:36;;;;;;;19.10;7.40;;;;;;;24.81;51.01;99365.83;67948;1275;1016260;-60
2023/08/22 02:00:39;;;;;;;19.30;6.60;;;;;;;24.81;50.88;99365.49;67970;1275;1016709;-61
2023/08/22 02:03:41;;;;;;;17.40;5.60;;;;;;;24.76;50.79;99366.38;67973;1275;1016439;-59
2023/08/22 02:06:44;;;;;;;;;;;;;;;24.70;51.00;99358.11;67944;1275;1016317;-61
2023/08/22 02:09:46;;;;;;;23.30;8.20;;;;;;;24.66;50.89;99357.15;67937;1275;1016378;-61
2023/08/22 02:12:48;;;;;;;;;;;;;;;24.59;51.38;99358.77;67920;1275;1018150;-59
2023/08/22 02:15:51;;;;;;;16.30;4.80;;;;;;;24.56;51.45;99353.73;67971;1275;1016206;-59
2023/08/22 02:18:54;;;;;;;20.00;5.90;;;;;;;24.44;50.81;99357.30;67979;1275;1016333;-58
2023/08/22 02:21:57;;;;;;;29.80;5.90;;;;;;;24.41;50.64;99357.71;67904;1275;1016238;-61
2023/08/22 02:24:59;;;;;;;;;;;;;;;24.33;50.65;99351.99;68004;1275;1016046;-61
2023/08/22 02:28:03;;;;;;;22.30;7.00;;;;;;;24.28;50.71;99350.92;67928;1275;1016409;-60
2023/08/22 02:31:06;;;;;;;21.20;8.20;;;;;;;24.26;50.93;99349.63;68001;1275;1016093;-61
2023/08/22 02:34:08;;;;;;;18.00;6.30;;;;;;;24.33;50.77;99346.13;67933;1275;1016402;-61
2023/08/22 02:37:10;;;;;;;;;;;;;;;24.23;50.92;99350.77;67946;1275;1015924;-58
2023/08/22 02:40:13;;;;;;;20.60;6.90;;;;;;;24.06;51.54;99352.15;67949;1275;1016321;-60
2023/08/22 02:43:15;;;;;;;;;;;;;;;23.89;51.35;99348.23;68005;1275;1016669;-61
2023/08/22 02:46:18;;;;;;;18.80;5.50;;;;;;;23.78;51.33;99350.64;67964;1275;1016292;-60
2023/08/22 02:49:20;;;;;;;;;;;;;;;23.76;51.45;99350.38;67920;1275;1016459;-61
2023/08/22 02:52:23;;;;;;;18.20;6.00;;;;;;;23.83;51.58;99353.37;67930;1275;1016469;-60
2023/08/22 02:55:25;;;;;;;;;;;;;;;23.80;51.81;99352.96;67977;1275;1016278;-61
2023/08/22 02:58:28;;;;;;;22.20;6.80;;;;;;;23.89;51.66;99346.29;67997;1275;1016846;-61
2023/08/22 03:01:31;;;;;;;14.70;4.20;;;;;;;23.85;51.45;99347.45;67885;1275;1016348;-61
2023/08/22 03:04:33;;;;;;;;;;;;;;;23.74;51.30;99355.92;67963;1275;1019386;-60
2023/08/22 03:07:36;;;;;;;15.30;3.70;;;;;;;23.52;51.66;99360.38;68013;1275;1016293;-60
2023/08/22 03:10:38;;;;;;;16.40;4.30;;;;;;;23.45;51.89;99365.08;67936;1275;1016452;-59
2023/08/22 03:13:41;;;;;;;;;;;;;;;23.43;51.66;99364.20;67930;1275;1016126;-60
2023/08/22 03:16:43;;;;;;;16.70;4.10;;;;;;;23.24;52.02;99362.63;67930;1275;1017106;-59
2023/08/22 03:19:45;;;;;;;;;;;;;;;23.08;52.72;99363.53;68015;1275;1016425;-61
2023/08/22 03:22:48;;;;;;;15.40;5.20;;;;;;;23.32;52.09;99360.56;67972;1275;1016403;-61
2023/08/22 03:25:50;;;;;;;;;;;;;;;23.30;52.22;99354.46;67862;1275;1016567;-61
2023/08/22 03:28:53;;;;;;;17.60;4.80;;;;;;;23.47;51.66;99351.69;67919;1275;1016499;-60
2023/08/22 03:31:55;;;;;;;;;;;;;;;23.63;51.10;99352.73;67987;1275;1016481;-61
2023/08/22 03:34:57;;;;;;;37.20;15.40;;;;;;;23.65;50.97;99349.68;67983;1275;1016278;-58
2023/08/22 03:38:00;;;;;;;35.80;14.80;;;;;;;23.62;51.13;99351.13;67960;1275;1016403;-61
2023/08/22 03:41:03;;;;;;;25.60;9.70;;;;;;;23.61;50.89;99355.30;67940;1275;1016390;-61
2023/08/22 03:44:06;;;;;;;29.10;10.80;;;;;;;23.61;51.13;99353.73;67954;1275;1016116;-61
2023/08/22 03:47:08;;;;;;;;;;;;;;;23.65;51.28;99352.80;67930;1275;1016239;-59
2023/08/22 03:50:11;;;;;;;24.50;9.40;;;;;;;23.44;51.96;99348.41;67963;1275;1016372;-60
2023/08/22 03:53:13;;;;;;;22.40;8.60;;;;;;;23.31;52.27;99348.86;67910;1275;1016459;-61
2023/08/22 03:56:16;;;;;;;26.80;9.60;;;;;;;23.28;52.49;99349.40;67945;1275;1016464;-60
2023/08/22 03:59:18;;;;;;;;;;;;;;;23.33;52.38;99349.33;67951;1275;1016319;-58
2023/08/22 04:02:21;;;;;;;21.70;8.10;;;;;;;23.35;52.26;99346.52;67933;1275;1016818;-60
2023/08/22 04:05:23;;;;;;;;;;;;;;;23.46;52.11;99349.59;67941;1275;1018094;-59
2023/08/22 04:08:25;;;;;;;22.50;7.00;;;;;;;23.56;51.95;99354.39;67983;1275;1016498;-61
2023/08/22 04:11:28;;;;;;;;;;;;;;;23.65;51.91;99353.14;67996;1275;1016458;-58
2023/08/22 04:14:30;;;;;;;21.70;7.20;;;;;;;23.70;51.77;99357.75;67916;1275;1016877;-58
2023/08/22 04:17:34;;;;;;;;;;;;;;;23.77;51.52;99357.34;67936;1275;1016463;-60
2023/08/22 04:20:36;;;;;;;20.10;6.20;;;;;;;23.74;51.57;99356.96;67977;1275;1016490;-59
2023/08/22 04:23:39;;;;;;;37.90;7.10;;;;;;;23.66;52.00;99356.73;67902;1275;1016484;-60
2023/08/22 04:26:41;;;;;;;;;;;;;;;23.81;52.06;99352.87;67954;1275;1016480;-60
2023/08/22 04:29:44;;;;;;;18.70;5.90;;;;;;;24.05;51.58;99342.75;67978;1275;1016582;-59
2023/08/22 04:32:46;;;;;;;;;;;;;;;24.21;51.70;99342.92;67936;1275;1016835;-60
2023/08/22 04:35:49;;;;;;;18.30;6.60;;;;;;;24.40;51.72;99346.46;67926;1275;1016210;-60
2023/08/22 04:38:51;;;;;;;20.20;6.60;;;;;;;24.61;51.70;99345.69;67984;1275;1016432;-60
2023/08/22 04:41:54;;;;;;;;;;;;;;;24.79;51.66;99339.48;67986;1275;1016400;-60
2023/08/22 04:44:56;;;;;;;22.10;6.80;;;;;;;24.86;51.64;99337.04;67988;1275;1016371;-60
2023/08/22 04:47:59;;;;;;;;;;;;;;;25.13;51.80;99338.66;67923;1275;1016419;-59
2023/08/22 04:51:01;;;;;;;21.40;7.60;;;;;;;25.70;51.03;99336.20;67936;1275;1016515;-59
2023/08/22 04:54:03;;;;;;;;;;;;;;;25.98;50.67;99335.86;67995;1275;1018038;-59
2023/08/22 04:57:06;;;;;;;23.60;8.20;;;;;;;26.23;50.10;99337.90;67959;1275;1016276;-61
2023/08/22 05:00:09;;;;;;;22.70;7.60;;;;;;;26.41;50.08;99343.41;67897;1275;1015995;-61
2023/08/22 05:03:14;;;;;;;20.30;8.00;;;;;;;26.56;50.42;99343.20;67983;1275;1016514;-59
2023/08/22 05:06:16;;;;;;;21.40;7.70;;;;;;;26.74;50.51;99339.44;67964;1275;1016478;-60
2023/08/22 05:09:19;;;;;;;21.50;7.70;;;;;;;26.76;50.65;99335.06;67929;1275;1016432;-61
2023/08/22 05:12:21;;;;;;;23.80;7.60;;;;;;;26.78;51.03;99333.03;67910;1275;1016462;-62
2023/08/22 05:15:24;;;;;;;25.30;8.90;;;;;;;27.02;50.96;99328.45;67957;1275;1016462;-60
2023/08/22 05:18:27;;;;;;;21.80;8.50;;;;;;;27.40;50.68;99325.88;67938;1275;1016336;-59
2023/08/22 05:21:29;;;;;;;24.40;9.20;;;;;;;27.78;50.36;99326.67;67936;1275;1016280;-59
2023/08/22 05:24:32;;;;;;;22.90;8.50;;;;;;;27.97;50.34;99328.50;67915;1275;1016231;-61
2023/08/22 05:27:34;;;;;;;23.20;9.80;;;;;;;28.08;50.17;99326.99;67913;1275;1016434;-61
2023/08/22 05:30:37;;;;;;;25.40;9.00;;;;;;;28.22;49.98;99330.55;67963;1275;1016437;-61
2023/08/22 05:33:39;;;;;;;28.10;10.50;;;;;;;28.44;50.23;99330.34;67993;1275;1016492;-62
2023/08/22 05:36:41;;;;;;;30.20;10.90;;;;;;;28.62;50.10;99332.95;67912;1275;1016677;-61
2023/08/22 05:39:44;;;;;;;26.10;10.50;;;;;;;29.00;49.22;99334.65;67899;1275;1016280;-58
2023/08/22 05:42:46;;;;;;;26.20;9.20;;;;;;;29.32;49.15;99331.05;67963;1275;1016277;-61
2023/08/22 05:45:49;;;;;;;24.60;9.70;;;;;;;29.53;49.26;99329.30;67965;1275;1015872;-59
2023/08/22 05:48:51;;;;;;;23.20;9.80;;;;;;;29.65;48.72;99331.08;67961;1275;1016194;-61
2023/08/22 05:51:54;;;;;;;23.70;10.10;;;;;;;29.77;48.57;99330.71;67884;1275;1016006;-59
2023/08/22 05:54:56;;;;;;;22.30;10.20;;;;;;;29.96;48.65;99336.30;67916;1275;1016122;-61
2023/08/22 05:57:59;;;;;;;25.70;10.50;;;;;;;30.09;48.69;99335.91;67950;1275;1016498;-61
2023/08/22 06:01:01;;;;;;;28.10;10.90;;;;;;;30.39;48.56;99335.40;67915;1275;1016412;-59
2023/08/22 06:04:04;;;;;;;22.80;9.90;;;;;;;30.95;47.57;99338.78;67960;1275;1016328;-61
2023/08/22 06:07:06;;;;;;;24.10;10.00;;;;;;;31.32;46.36;99336.67;67909;1275;1016609;-61
2023/08/22 06:10:09;;;;;;;24.10;9.50;;;;;;;31.39;46.32;99332.52;67942;1275;1016287;-58
2023/08/22 06:13:11;;;;;;;25.70;9.40;;;;;;;31.55;46.32;99332.39;67955;1275;1016088;-61
2023/08/22 06:16:13;;;;;;;21.90;9.30;;;;;;;31.58;45.75;99332.52;67897;1275;1016385;-61
2023/08/22 06:19:16;;;;;;;24.90;9.20;;;;;;;31.55;45.70;99334.71;67916;1275;1016488;-61
2023/08/22 06:22:18;;;;;;;21.70;8.90;;;;;;;31.64;45.84;99334.96;67896;1275;1015886;-61
2023/08/22 06:25:21;;;;;;;23.20;9.40;;;;;;;31.87;45.67;99332.72;67945;1275;1016545;-61
2023/08/22 06:28:23;;;;;;;25.80;8.90;;;;;;;32.12;45.05;99328.77;67961;1275;1016519;-59
2023/08/22 06:31:26;;;;;;;22.70;8.20;;;;;;;32.44;44.67;99330.74;67967;1275;1016416;-61
2023/08/22 06:34:28;;;;;;;20.50;8.20;;;;;;;32.89;44.02;99335.92;67925;1275;1016501;-59
2023/08/22 06:37:31;;;;;;;25.50;8.60;;;;;;;33.11;43.42;99336.05;67916;1275;1018636;-58
2023/08/22 06:40:33;;;;;;;21.30;8.20;;;;;;;33.13;43.68;99337.58;67963;1275;1016654;-59
2023/08/22 06:43:35;;;;;;;24.70;8.80;;;;;;;33.13;43.51;99340.84;67885;1275;1016606;-61
2023/08/22 06:46:38;;;;;;;21.50;8.50;;;;;;;33.36;43.09;99340.56;67936;1275;1016280;-61
2023/08/22 06:49:40;;;;;;;22.20;9.80;;;;;;;33.36;42.71;99339.48;67916;1274;1016047;-60
2023/08/22 06:52:43;;;;;;;21.20;8.80;;;;;;;33.35;43.09;99337.40;67896;1275;1016226;-60
2023/08/22 06:55:45;;;;;;;23.20;8.70;;;;;;;33.40;43.27;99339.52;67949;1275;1016315;-58
2023/08/22 06:58:48;;;;;;;25.80;9.20;;;;;;;33.63;42.59;99337.30;67925;1275;1016521;-57
2023/08/22 07:01:50;;;;;;;23.30;8.50;;;;;;;33.90;42.26;99336.27;67935;1275;1018176;-59
2023/08/22 07:04:53;;;;;;;21.80;8.40;;;;;;;33.88;41.90;99333.88;67903;1275;1016265;-61
2023/08/22 07:07:55;;;;;;;25.70;8.70;;;;;;;34.14;42.07;99341.41;67889;1275;1016420;-61
2023/08/22 07:10:58;;;;;;;21.10;7.90;;;;;;;34.46;41.43;99342.14;67961;1275;1016514;-61
2023/08/22 07:14:00;;;;;;;22.30;7.80;;;;;;;34.61;40.66;99343.06;67959;1275;1016510;-61
2023/08/22 07:17:02;;;;;;;24.70;7.50;;;;;;;34.70;40.51;99341.30;67933;1275;1016242;-58
2023/08/22 07:20:05;;;;;;;19.80;7.50;;;;;;;34.95;40.13;99345.70;67879;1275;1016001;-61
2023/08/22 07:23:07;;;;;;;20.90;6.50;;;;;;;34.91;39.58;99341.80;67912;1275;1016888;-61
2023/08/22 07:26:10;;;;;;;18.30;6.50;;;;;;;34.82;39.51;99343.80;67961;1275;1016328;-61
2023/08/22 07:29:12;;;;;;;21.30;6.60;;;;;;;34.77;38.48;99345.48;67963;1275;1016435;-62
2023/08/22 07:32:14;;;;;;;21.20;6.40;;;;;;;34.75;39.10;99341.73;67952;1275;1016377;-59
2023/08/22 07:35:17;;;;;;;19.70;6.80;;;;;;;34.73;38.78;99341.69;67918;1253;1016142;-58
2023/08/22 07:38:19;;;;;;;21.20;6.50;;;;;;;34.74;38.15;99338.28;67912;1275;1016465;-61
2023/08/22 07:41:22;;;;;;;16.80;5.40;;;;;;;34.90;37.73;99334.38;67938;1275;1016440;-61
2023/08/22 07:44:25;;;;;;;19.30;5.80;;;;;;;34.98;38.26;99338.47;67939;1275;1016692;-59
2023/08/22 07:47:27;;;;;;;18.40;6.00;;;;;;;35.48;38.24;99337.42;67877;1275;1016206;-58
2023/08/22 07:50:30;;;;;;;22.00;6.50;;;;;;;35.92;36.85;99337.56;67907;1275;1016466;-61
2023/08/22 07:53:32;;;;;;;18.10;6.30;;;;;;;36.13;36.72;99332.09;67956;1275;1016274;-61
2023/08/22 07:56:35;;;;;;;22.50;6.70;;;;;;;36.24;36.73;99338.48;67899;1275;1018312;-60
2023/08/22 07:59:37;;;;;;;18.80;6.80;;;;;;;36.40;36.75;99341.26;67916;1275;1016451;-59
2023/08/22 08:02:40;;;;;;;21.70;6.80;;;;;;;36.70;36.08;99341.20;67950;1275;1016958;-58
2023/08/22 08:05:42;;;;;;;21.10;6.20;;;;;;;37.21;36.29;99343.02;67951;1275;1016135;-61
2023/08/22 08:08:45;;;;;;;18.20;6.30;;;;;;;37.24;35.17;99342.62;67975;1275;1016333;-62
2023/08/22 08:11:47;;;;;;;20.40;6.60;;;;;;;36.68;35.37;99342.36;67883;1275;1016443;-61
2023/08/22 08:14:49;;;;;;;18.00;6.10;;;;;;;36.60;35.61;99335.32;67875;1275;1016939;-59
2023/08/22 08:17:52;;;;;;;20.40;6.10;;;;;;;36.68;35.39;99333.06;67940;1275;1018529;-59
2023/08/22 08:20:55;;;;;;;20.30;6.40;;;;;;;36.83;35.63;99330.38;67922;1275;1018621;-57
2023/08/22 08:23:58;;;;;;;20.60;6.50;;;;;;;37.10;34.81;99333.05;67903;1275;1016919;-57
2023/08/22 08:27:00;;;;;;;19.20;6.70;;;;;;;37.29;35.19;99331.38;67931;1275;1016411;-60
2023/08/22 08:30:05;;;;;;;22.50;6.70;;;;;;;37.53;34.26;99326.41;67980;1275;1016087;-60
2023/08/22 08:33:09;;;;;;;20.30;6.20;;;;;;;37.76;34.68;99322.27;67904;1275;1016450;-60
2023/08/22 08:36:11;;;;;;;20.20;5.90;;;;;;;38.13;34.35;99318.71;67905;1275;1016260;-60
2023/08/22 08:39:14;;;;;;;20.80;6.20;;;;;;;38.47;33.93;99318.66;67884;1275;1016316;-60
2023/08/22 08:42:16;;;;;;;20.70;6.10;;;;;;;38.75;33.08;99318.49;67941;1275;1016401;-60
2023/08/22 08:45:19;;;;;;;17.10;5.50;;;;;;;38.73;33.14;99320.52;67959;1275;1015991;-59
2023/08/22 08:48:21;;;;;;;17.90;5.40;;;;;;;38.75;32.23;99319.77;67906;1275;1016443;-60
2023/08/22 08:51:23;;;;;;;19.60;5.90;;;;;;;38.63;31.95;99315.41;67908;1275;1016430;-59
2023/08/22 08:54:26;;;;;;;13.20;4.30;;;;;;;38.63;32.04;99319.63;67920;1275;1016573;-60
2023/08/22 08:57:28;;;;;;;15.40;4.80;;;;;;;38.28;31.58;99319.44;67902;1275;1016464;-59
2023/08/22 09:00:31;;;;;;;15.30;4.60;;;;;;;38.00;31.31;99313.86;67937;1275;1016501;-60
2023/08/22 09:03:33;;;;;;;14.70;4.90;;;;;;;37.77;31.53;99313.29;67887;1275;1016930;-59
2023/08/22 09:06:36;;;;;;;15.40;5.20;;;;;;;37.92;32.47;99307.73;67883;1275;1016218;-56
2023/08/22 09:09:38;;;;;;;17.20;4.90;;;;;;;38.53;31.80;99309.55;67916;1275;1016497;-59
2023/08/22 09:12:40;;;;;;;17.60;5.10;;;;;;;38.69;31.07;99309.48;67934;1275;1015973;-56
2023/08/22 09:15:43;;;;;;;15.20;4.90;;;;;;;38.47;30.74;99312.87;67949;1275;1016911;-59
2023/08/22 09:18:45;;;;;;;14.80;4.60;;;;;;;38.26;31.20;99306.33;67962;1275;1015963;-59
2023/08/22 09:21:48;;;;;;;16.50;4.80;;;;;;;38.27;31.05;99307.58;67910;1275;1016473;-57
2023/08/22 09:24:50;;;;;;;13.00;4.20;;;;;;;38.33;30.92;99308.63;67865;1275;1016430;-57
2023/08/22 09:27:53;;;;;;;13.10;4.50;;;;;;;37.91;29.79;99300.75;67954;1275;1016512;-60
2023/08/22 09:30:56;;;;;;;13.70;4.40;;;;;;;37.74;30.52;99300.29;67912;1275;1016593;-60
2023/08/22 09:33:58;;;;;;;13.60;4.00;;;;;;;38.23;31.08;99298.37;67911;1275;1015710;-60
2023/08/22 09:37:01;;;;;;;11.60;3.90;;;;;;;38.44;28.28;99298.06;67951;1275;1016463;-59
2023/08/22 09:40:05;;;;;;;13.10;4.10;;;;;;;38.11;28.97;99291.98;67941;1275;1016080;-60
2023/08/22 09:43:08;;;;;;;12.40;4.00;;;;;;;37.83;28.89;99292.71;67903;1275;1018280;-60
2023/08/22 09:46:10;;;;;;;12.90;4.10;;;;;;;37.69;29.00;99286.35;67893;1275;1016368;-60
2023/08/22 09:49:12;;;;;;;13.30;4.10;;;;;;;37.86;29.17;99284.70;67911;1275;1016293;-60
2023/08/22 09:52:15;;;;;;;13.60;3.90;;;;;;;38.44;28.60;99288.73;67942;1275;1016435;-58
2023/08/22 09:55:17;;;;;;;9.30;3.50;;;;;;;38.67;28.37;99288.36;67938;1275;1016635;-60
2023/08/22 09:58:20;;;;;;;11.80;3.90;;;;;;;38.59;28.16;99283.61;67894;1275;1017479;-60
2023/08/22 10:01:22;;;;;;;12.60;3.80;;;;;;;38.78;27.71;99283.88;67749;1275;1168450;-60
2023/08/22 10:04:25;;;;;;;12.60;3.80;;;;;;;38.88;28.42;99281.83;67939;1275;1016014;-58
2023/08/22 10:07:28;;;;;;;13.50;4.20;;;;;;;38.87;28.48;99275.62;67957;1275;1016158;-60
2023/08/22 10:10:30;;;;;;;10.50;3.60;;;;;;;39.14;28.07;99269.23;67905;1275;1016455;-61
2023/08/22 10:13:33;;;;;;;12.00;3.90;;;;;;;39.31;27.87;99272.66;67940;1274;1016458;-61
2023/08/22 10:16:37;;;;;;;9.80;3.70;;;;;;;38.98;27.17;99271.50;67928;1275;1016443;-56
2023/08/22 10:19:39;;;;;;;10.00;3.70;;;;;;;38.60;27.44;99264.04;67953;1275;1016406;-60
2023/08/22 10:22:42;;;;;;;9.50;2.70;;;;;;;38.06;26.30;99269.10;67935;1275;1016469;-60
2023/08/22 10:25:44;;;;;;;11.30;3.30;;;;;;;37.36;27.00;99268.64;67893;1275;1016423;-59
2023/08/22 10:28:52;;;;;;;11.00;3.00;;;;;;;37.52;27.03;99255.29;67908;1275;1016300;-61
2023/08/22 10:31:54;;;;;;;8.10;3.20;;;;;;;37.92;27.04;99254.19;67901;1275;1016299;-60
2023/08/22 10:34:56;;;;;;;11.10;3.50;;;;;;;38.29;26.43;99252.39;67927;1275;1016439;-60
2023/08/22 10:37:59;;;;;;;6.90;3.10;;;;;;;38.53;26.43;99248.30;67928;1275;1016217;-60
2023/08/22 10:41:03;;;;;;;12.60;3.60;;;;;;;38.99;26.23;99255.48;67960;1275;1016462;-60
2023/08/22 10:44:05;;;;;;;9.50;3.30;;;;;;;38.65;25.43;99262.27;67938;1275;1016330;-57
2023/08/22 10:47:07;;;;;;;10.40;3.40;;;;;;;38.53;26.94;99254.59;67954;1275;1016486;-60
2023/08/22 10:50:10;;;;;;;11.50;3.40;;;;;;;38.51;26.42;99255.30;67947;1253;1019095;-61
2023/08/22 10:53:13;;;;;;;10.90;3.70;;;;;;;38.51;26.21;99250.15;67910;1275;1016510;-60
2023/08/22 10:56:15;;;;;;;9.60;3.40;;;;;;;38.83;26.45;99251.60;67959;1275;1016219;-57
2023/08/22 10:59:17;;;;;;;13.40;3.90;;;;;;;38.62;26.62;99251.13;67936;1275;1016436;-57
2023/08/22 11:02:20;;;;;;;11.90;3.70;;;;;;;38.73;26.39;99247.90;67938;1275;1016442;-60
2023/08/22 11:05:22;;;;;;;11.60;3.20;;;;;;;38.88;26.51;99246.84;67903;1275;1016479;-60
2023/08/22 11:08:25;;;;;;;11.80;3.70;;;;;;;38.91;26.12;99251.35;67877;1275;1016281;-59
2023/08/22 11:11:27;;;;;;;13.40;3.80;;;;;;;38.99;26.48;99247.97;67917;1275;1016314;-57
2023/08/22 11:14:29;;;;;;;13.10;3.30;;;;;;;39.30;26.36;99243.91;67944;1275;1018625;-60
2023/08/22 11:17:32;;;;;;;11.70;3.70;;;;;;;39.89;25.48;99245.12;67925;1275;1016172;-60
2023/08/22 11:20:34;;;;;;;10.60;3.10;;;;;;;39.80;24.96;99243.70;67939;1275;1016413;-60
2023/08/22 11:23:36;;;;;;;10.70;3.40;;;;;;;39.59;25.22;99240.33;67886;1275;1016107;-60
2023/08/22 11:26:39;;;;;;;9.60;3.30;;;;;;;39.51;25.55;99238.84;67843;1275;1016459;-60
2023/08/22 11:29:42;;;;;;;8.40;3.40;;;;;;;39.95;25.18;99230.11;67908;1275;1018646;-60
2023/08/22 11:32:45;;;;;;;11.40;3.60;;;;;;;40.12;25.20;99229.50;67899;1275;1017142;-58
2023/08/22 11:35:47;;;;;;;9.30;3.10;;;;;;;40.18;25.30;99222.55;67906;1275;1016499;-58
2023/08/22 11:38:50;;;;;;;12.40;3.80;;;;;;;40.83;26.08;99226.19;67968;1275;1016453;-57
2023/08/22 11:41:52;;;;;;;9.40;3.50;;;;;;;41.02;24.92;99221.75;67932;1275;1016625;-60
2023/08/22 11:44:55;;;;;;;10.60;3.60;;;;;;;40.62;24.63;99219.98;67857;1275;1016419;-60
2023/08/22 11:47:57;;;;;;;13.60;3.50;;;;;;;40.75;25.09;99219.58;67910;1275;1016716;-57
2023/08/22 11:50:59;;;;;;;11.20;3.60;;;;;;;41.17;24.51;99214.05;67937;1275;1016499;-60
2023/08/22 11:54:02;;;;;;;12.00;3.60;;;;;;;41.59;24.91;99211.84;67996;1275;1016332;-60
2023/08/22 11:57:04;;;;;;;10.10;3.30;;;;;;;41.75;24.32;99201.95;67948;1275;1007776;-60
2023/08/22 12:00:08;;;;;;;11.30;3.60;;;;;;;41.65;24.68;99205.23;67911;1275;1016294;-60
2023/08/22 12:03:11;;;;;;;11.40;3.40;;;;;;;41.46;24.43;99205.47;67887;1275;1016139;-60
2023/08/22 12:06:13;;;;;;;11.80;3.80;;;;;;;41.37;25.00;99199.04;67941;1275;1016154;-60
2023/08/22 12:09:16;;;;;;;10.40;3.50;;;;;;;41.40;24.32;99200.38;67959;1275;1016365;-57
2023/08/22 12:12:18;;;;;;;8.90;3.40;;;;;;;41.17;24.72;99198.31;67889;1275;1016722;-60
2023/08/22 12:15:21;;;;;;;11.40;4.10;;;;;;;41.34;24.75;99198.14;67914;1275;1016391;-60
2023/08/22 12:18:23;;;;;;;7.20;3.40;;;;;;;41.57;24.72;99198.42;67910;1275;1016474;-60
2023/08/22 12:21:25;;;;;;;12.00;4.10;;;;;;;41.69;24.28;99196.06;67912;1275;1016332;-60
2023/08/22 12:24:28;;;;;;;8.40;3.50;;;;;;;41.69;24.37;99191.65;67889;1275;1016331;-57
2023/08/22 12:27:30;;;;;;;15.50;4.00;;;;;;;41.62;24.49;99192.39;67948;1275;1016381;-61
2023/08/22 12:30:33;;;;;;;10.50;3.70;;;;;;;41.28;24.18;99186.27;67950;1275;1016239;-60
2023/08/22 12:33:36;;;;;;;11.10;3.80;;;;;;;41.55;24.55;99180.56;67916;1275;1016299;-59
2023/08/22 12:36:38;;;;;;;12.90;4.20;;;;;;;41.78;24.34;99177.98;67923;1275;1016476;-60
2023/08/22 12:39:40;;;;;;;12.00;3.80;;;;;;;41.74;23.89;99176.91;67995;1275;1019396;-60
2023/08/22 12:42:45;;;;;;;9.80;3.50;;;;;;;41.70;24.16;99175.80;67968;1275;1016366;-60
2023/08/22 12:45:47;;;;;;;9.00;3.70;;;;;;;41.14;23.95;99177.92;67908;1275;1017293;-59
2023/08/22 12:48:49;;;;;;;10.30;3.70;;;;;;;41.48;25.64;99171.65;67919;1275;1016836;-60
2023/08/22 12:51:52;;;;;;;13.80;3.90;;;;;;;42.02;24.68;99167.48;67939;1275;1009701;-61
2023/08/22 12:54:54;;;;;;;13.90;4.10;;;;;;;42.52;24.21;99162.72;67947;1275;1007457;-60
2023/08/22 12:57:57;;;;;;;10.60;3.90;;;;;;;42.49;24.18;99159.78;67963;1275;1007860;-57
2023/08/22 13:00:59;;;;;;;12.10;3.70;;;;;;;41.62;23.91;99160.72;67952;1275;1016462;-60
2023/08/22 13:04:02;;;;;;;12.10;4.00;;;;;;;41.62;24.57;99161.94;67950;1275;1016861;-61
2023/08/22 13:07:07;;;;;;;8.10;3.50;;;;;;;41.88;24.10;99160.23;67978;1275;1007759;-60
2023/08/22 13:10:09;;;;;;;12.40;4.10;;;;;;;41.88;25.01;99162.98;67917;1275;1015953;-60
2023/08/22 13:13:12;;;;;;;8.90;3.60;;;;;;;41.97;24.06;99158.81;67937;1275;1007520;-60
2023/08/22 13:16:14;;;;;;;9.00;3.70;;;;;;;41.83;23.90;99159.86;67936;1275;1016149;-60
2023/08/22 13:19:17;;;;;;;13.40;3.90;;;;;;;42.06;24.39;99157.46;67950;1275;1007691;-59
2023/08/22 13:22:19;;;;;;;9.50;3.40;;;;;;;42.24;24.30;99155.44;67986;1275;1015987;-60
2023/08/22 13:25:21;;;;;;;10.30;3.80;;;;;;;42.26;23.90;99153.13;67933;1275;1007957;-59
2023/08/22 13:28:24;;;;;;;11.80;4.00;;;;;;;42.80;23.73;99147.16;67916;1275;1007622;-61
2023/08/22 13:31:26;;;;;;;11.30;3.70;;;;;;;42.76;23.66;99148.77;67915;1275;1007641;-59
2023/08/22 13:34:29;;;;;;;12.20;3.80;;;;;;;42.54;23.91;99149.30;67917;1275;1007222;-60
2023/08/22 13:37:32;;;;;;;13.80;4.10;;;;;;;42.67;23.98;99146.97;67951;1275;1007635;-60
2023/08/22 13:40:35;;;;;;;11.00;4.00;;;;;;;42.84;23.43;99146.10;67982;1275;1007821;-60
2023/08/22 13:43:39;;;;;;;12.80;4.30;;;;;;;42.73;23.57;99142.96;67990;1275;1007544;-60
2023/08/22 13:46:41;;;;;;;11.00;3.80;;;;;;;42.95;23.48;99138.14;67977;1275;1007700;-60
2023/08/22 13:49:43;;;;;;;13.60;3.90;;;;;;;42.71;23.82;99135.82;67982;1275;1007587;-60
2023/08/22 13:52:46;;;;;;;10.20;3.80;;;;;;;42.37;23.74;99131.44;67913;1275;1007653;-60
2023/08/22 13:55:48;;;;;;;11.10;4.00;;;;;;;41.70;24.19;99131.64;67925;1275;1016463;-60